Cielo Di Hanoi — D5LL6 — position and weather

sailwx.info

Track history (hours):
 
Tides and Currents Weather Stations Pressure Air Temp Water Temp Dewpoint Dewpoint Depression Visibility Wind Speed Wind Dir Waves Ship Positions

Cielo Di Hanoi

Last reported at 2018-Jun-23 20:50 UTC. Time now 2018-Jun-24 05:00 UTC.
Position N 55°37' E 015°23'.

Length 184 m; draft 7.4 m.

Type: Tanker. MMSI: 636017541.

Date/timePositionNaut miles runAvg speedWind from/ knotsBaromVisibWave heightAir tempDewpointWater temp
2018-Jun-23 20:50N 55°37' E 015°23'512.7
2018-Jun-23 20:27N 55°35' E 015°16'612.9
2018-Jun-23 19:59N 55°32' E 015°06'612.9
2018-Jun-23 19:30N 55°29' E 014°56'612.9
2018-Jun-23 19:00N 55°26' E 014°46'612.9
2018-Jun-23 18:30N 55°23' E 014°37'612.8
2018-Jun-23 18:00N 55°18' E 014°30'612.8
2018-Jun-23 17:30N 55°13' E 014°23'612.7
2018-Jun-23 17:00N 55°08' E 014°17'612.4
2018-Jun-23 16:30N 55°03' E 014°10'612.5
2018-Jun-23 16:00N 55°00' E 014°01'713.0
2018-Jun-23 15:30N 54°58' E 013°49'1812.6
2018-Jun-23 14:04N 54°52' E 013°20'4212.7
2018-Jun-23 10:44N 54°31' E 012°17'313.2
2018-Jun-23 10:30N 54°28' E 012°16'1812.7
2018-Jun-23 09:06N 54°25' E 011°45'113.3
2018-Jun-23 09:00N 54°25' E 011°44'814.2
2018-Jun-23 08:28N 54°29' E 011°32'714.0
2018-Jun-23 08:00N 54°32' E 011°22'815.4
2018-Jun-23 07:30N 54°35' E 011°10'815.2
2018-Jun-23 07:00N 54°34' E 010°57'714.0
2018-Jun-23 06:30N 54°34' E 010°45'713.3
2018-Jun-23 06:00N 54°33' E 010°34'813.1
2018-Jun-23 05:25N 54°30' E 010°21'42 5.9
2018-Jun-22 22:14N 54°08' E 009°20'2 7.7
2018-Jun-22 21:59N 54°06' E 009°20'4 8.2
2018-Jun-22 21:30N 54°02' E 009°18'3 6.4
2018-Jun-22 21:00N 53°59' E 009°17'4 7.8
2018-Jun-22 20:30N 53°56' E 009°12'3 6.1
2018-Jun-22 20:00N 53°54' E 009°09'0 0.0
2018-Jun-22 19:30N 53°54' E 009°09'1 2.4
2018-Jun-22 19:00N 53°53' E 009°07'5 9.5
2018-Jun-22 18:30N 53°51' E 008°60'714.1
2018-Jun-22 18:00N 53°50' E 008°48'714.5
2018-Jun-22 17:30N 53°56' E 008°40'25510.2
2018-Jun-21 16:28N 51°41' E 002°41'812.0
2018-Jun-21 15:50N 51°34' E 002°42'412.4
2018-Jun-21 15:28N 51°29' E 002°42'611.1
2018-Jun-21 14:58N 51°24' E 002°43'612.2
2018-Jun-21 14:30N 51°25' E 002°52'713.8
2018-Jun-21 14:00N 51°25' E 003°03'714.0
2018-Jun-21 13:30N 51°25' E 003°14'714.4
2018-Jun-21 13:00N 51°25' E 003°26'714.6
2018-Jun-21 12:31N 51°26' E 003°37'5 9.6
2018-Jun-21 12:00N 51°24' E 003°44'2 3.1
2018-Jun-21 11:31N 51°23' E 003°46'0 0.1
2018-Jun-21 10:56N 51°23' E 003°46'0 0.0
2018-Jun-21 10:29N 51°23' E 003°46'0 0.1
2018-Jun-21 09:59N 51°23' E 003°46'0 0.3
2018-Jun-21 09:29N 51°23' E 003°47'0 0.2
2018-Jun-21 08:59N 51°23' E 003°47'0 0.1
2018-Jun-21 08:29N 51°23' E 003°47'0 0.0
2018-Jun-21 07:59N 51°23' E 003°47'0 0.0
2018-Jun-21 07:29N 51°23' E 003°47'0 0.0
2018-Jun-21 06:59N 51°23' E 003°47'0 0.0
2018-Jun-21 06:29N 51°23' E 003°47'0 0.0
2018-Jun-21 05:59N 51°23' E 003°47'0 0.0
2018-Jun-21 05:29N 51°23' E 003°47'0 0.0
2018-Jun-21 04:59N 51°23' E 003°47'0 0.0
2018-Jun-21 04:29N 51°23' E 003°47'0 0.0
2018-Jun-21 03:59N 51°23' E 003°47'0 0.0
2018-Jun-21 03:26N 51°23' E 003°47'0 0.0
2018-Jun-21 02:59N 51°23' E 003°47'0 0.1
2018-Jun-21 02:29N 51°23' E 003°47'0 0.1
2018-Jun-21 01:53N 51°23' E 003°47'0 0.3
2018-Jun-21 01:29N 51°23' E 003°47'0 0.8
2018-Jun-21 01:00N 51°24' E 003°46'2 3.6
2018-Jun-21 00:30N 51°23' E 003°43'713.2
2018-Jun-21 00:00N 51°21' E 003°53'613.0
2018-Jun-20 23:30N 51°26' E 004°00'612.1
2018-Jun-20 23:00N 51°22' E 004°07'4 9.0
2018-Jun-20 22:30N 51°21' E 004°14'2 3.8
2018-Jun-20 22:01N 51°21' E 004°17'0 0.0
2018-Jun-20 21:30N 51°21' E 004°17'0 0.0
2018-Jun-20 21:00N 51°21' E 004°17'1 1.1
2018-Jun-20 20:30N 51°21' E 004°18'0 0.5
2018-Jun-20 20:01N 51°21' E 004°18'0 0.0
2018-Jun-20 19:30N 51°21' E 004°18'0 0.0
2018-Jun-20 19:00N 51°21' E 004°18'0 0.0
2018-Jun-20 18:30N 51°21' E 004°18'0 0.0
2018-Jun-20 18:00N 51°21' E 004°18'0 0.0
2018-Jun-20 17:30N 51°21' E 004°18'0 0.0
2018-Jun-20 17:00N 51°21' E 004°18'0 0.0
2018-Jun-20 16:30N 51°21' E 004°18'0 0.0
2018-Jun-20 16:01N 51°21' E 004°18'0 0.0
2018-Jun-20 15:30N 51°21' E 004°18'0 0.0
2018-Jun-20 15:00N 51°21' E 004°18'0 0.0
2018-Jun-20 14:31N 51°21' E 004°18'0 0.0
2018-Jun-20 14:01N 51°21' E 004°18'0 0.0
2018-Jun-20 13:30N 51°21' E 004°18'0 0.0
2018-Jun-20 13:00N 51°21' E 004°18'0 0.0
2018-Jun-20 12:31N 51°21' E 004°18'0 0.0
2018-Jun-20 12:01N 51°21' E 004°18'0 0.0
2018-Jun-20 11:31N 51°21' E 004°18'0 0.0
2018-Jun-20 11:00N 51°21' E 004°18'0 0.0
2018-Jun-20 10:30N 51°21' E 004°18'0 0.0
2018-Jun-20 10:00N 51°21' E 004°18'0 0.0
2018-Jun-20 09:30N 51°21' E 004°18'0 0.0
2018-Jun-20 09:00N 51°21' E 004°18'0 0.0
2018-Jun-20 08:30N 51°21' E 004°18'0 0.0
2018-Jun-20 08:00N 51°21' E 004°18'0 0.0
2018-Jun-20 07:30N 51°21' E 004°18'0 0.0
2018-Jun-20 07:00N 51°21' E 004°18'0 0.0
2018-Jun-20 06:30N 51°21' E 004°18'0 0.0
2018-Jun-20 06:00N 51°21' E 004°18'0 0.0
2018-Jun-20 05:30N 51°21' E 004°18'0 0.0
2018-Jun-20 05:01N 51°21' E 004°18'0 0.0
2018-Jun-20 04:31N 51°21' E 004°18'0 0.0
2018-Jun-20 04:01N 51°21' E 004°18'0 0.0
2018-Jun-20 03:31N 51°21' E 004°18'0 0.0
2018-Jun-20 03:00N 51°21' E 004°18'0 0.0
2018-Jun-20 02:31N 51°21' E 004°18'0 0.0
2018-Jun-20 02:00N 51°21' E 004°18'0 0.0
2018-Jun-20 01:30N 51°21' E 004°18'0 0.0
2018-Jun-20 01:01N 51°21' E 004°18'0 0.0
2018-Jun-20 00:30N 51°21' E 004°18'0 0.0
2018-Jun-20 00:01N 51°21' E 004°18'0 0.0
2018-Jun-19 23:31N 51°21' E 004°18'0 0.0
2018-Jun-19 23:00N 51°21' E 004°18'0 0.0
2018-Jun-19 22:30N 51°21' E 004°18'0 0.0
2018-Jun-19 22:00N 51°21' E 004°18'0 0.0
2018-Jun-19 21:30N 51°21' E 004°18'0 0.0
2018-Jun-19 21:00N 51°21' E 004°18'0 0.0
2018-Jun-19 20:30N 51°21' E 004°18'0 0.0
2018-Jun-19 20:00N 51°21' E 004°18'0 0.0
2018-Jun-19 19:30N 51°21' E 004°18'0 0.0
2018-Jun-19 19:00N 51°21' E 004°18'0 0.0
2018-Jun-19 18:30N 51°21' E 004°18'0 0.0
2018-Jun-19 18:01N 51°21' E 004°18'0 0.0
2018-Jun-19 17:30N 51°21' E 004°18'0 0.0
2018-Jun-19 17:00N 51°21' E 004°18'0 0.0
2018-Jun-19 11:08N 51°21' E 004°18'0 0.1
2018-Jun-19 11:00N 51°21' E 004°18'1 1.3
2018-Jun-19 10:31N 51°21' E 004°17'0 0.4
2018-Jun-19 10:00N 51°21' E 004°17'0 0.0
2018-Jun-19 09:30N 51°21' E 004°17'1 2.3
2018-Jun-19 09:00N 51°21' E 004°15'4 7.6
2018-Jun-19 08:30N 51°24' E 004°11'5 9.8
2018-Jun-19 08:00N 51°22' E 004°04'5 9.3
2018-Jun-19 07:30N 51°26' E 003°59'611.3
2018-Jun-19 07:00N 51°21' E 003°54'510.1
2018-Jun-19 06:30N 51°22' E 003°46'510.5
2018-Jun-19 06:00N 51°26' E 003°41'5 9.6
2018-Jun-19 05:30N 51°25' E 003°33'714.3
2018-Jun-19 05:00N 51°24' E 003°22'815.1
2018-Jun-19 04:30N 51°24' E 003°10'714.0
2018-Jun-19 04:00N 51°23' E 002°59'814.7
2018-Jun-19 03:29N 51°22' E 002°47'7 9.4
2018-Jun-19 02:46N 51°22' E 002°36'412.7
2018-Jun-19 02:27N 51°22' E 002°29'612.8
2018-Jun-19 01:57N 51°19' E 002°20'512.3
2018-Jun-19 01:30N 51°18' E 002°12'612.9
2018-Jun-19 01:00N 51°21' E 002°03'611.8
2018-Jun-19 00:30N 51°26' E 001°57'713.6
2018-Jun-19 00:00N 51°31' E 002°04'713.7
2018-Jun-18 23:30N 51°36' E 002°12'713.5
2018-Jun-18 22:59N 51°41' E 002°20'713.5
2018-Jun-18 22:30N 51°45' E 002°27'5911.6
2018-Jun-18 17:23N 52°41' E 003°01'611.2
2018-Jun-18 16:52N 52°45' E 003°07'1211.9
2018-Jun-18 15:50N 52°56' E 003°16'712.9
2018-Jun-18 15:19N 53°03' E 003°19'413.3
2018-Jun-18 14:59N 53°07' E 003°21'1613.6
2018-Jun-18 13:48N 53°22' E 003°29'513.6
2018-Jun-18 13:25N 53°27' E 003°32'35911.7
2018-Jun-17 06:39N 57°41' E 011°01'213.5
2018-Jun-17 06:29N 57°39' E 011°05'613.3
2018-Jun-17 06:00N 57°35' E 011°13'612.5
2018-Jun-17 05:30N 57°31' E 011°22'612.3
2018-Jun-17 05:00N 57°26' E 011°28'612.8
2018-Jun-17 04:30N 57°20' E 011°33'713.2
2018-Jun-17 04:00N 57°13' E 011°36'11711.5
2018-Jun-16 17:49N 55°18' E 011°03'412.9
2018-Jun-16 17:31N 55°15' E 011°06'510.5
2018-Jun-16 17:00N 55°09' E 011°03'510.7
2018-Jun-16 16:30N 55°04' E 011°02'611.7
2018-Jun-16 16:01N 54°59' E 010°58'611.1
2018-Jun-16 15:30N 54°55' E 010°52'510.5
2018-Jun-16 15:01N 54°50' E 010°50'611.7
2018-Jun-16 14:31N 54°44' E 010°47'510.8
2018-Jun-16 14:00N 54°39' E 010°51'612.5
2018-Jun-16 13:31N 54°36' E 011°00'612.2
2018-Jun-16 13:01N 54°36' E 011°11'612.8
2018-Jun-16 12:30N 54°33' E 011°21'612.7
2018-Jun-16 12:00N 54°30' E 011°30'612.6
2018-Jun-16 11:30N 54°28' E 011°41'612.4
2018-Jun-16 11:01N 54°26' E 011°51'612.7
2018-Jun-16 10:31N 54°26' E 012°02'612.1
2018-Jun-16 10:00N 54°28' E 012°12'712.3
2018-Jun-16 09:26N 54°35' E 012°15'5 9.9
2018-Jun-16 08:58N 54°38' E 012°21'611.1
2018-Jun-16 08:27N 54°41' E 012°29'511.5
2018-Jun-16 08:01N 54°44' E 012°37'612.2
2018-Jun-16 07:30N 54°47' E 012°45'713.2
2018-Jun-16 07:00N 54°50' E 012°56'713.4
2018-Jun-16 06:30N 54°52' E 013°07'713.6
2018-Jun-16 06:00N 54°54' E 013°18'713.5
2018-Jun-16 05:30N 54°56' E 013°29'713.2
2018-Jun-16 05:00N 54°58' E 013°40'713.1
2018-Jun-16 04:31N 55°01' E 013°51'713.3
2018-Jun-16 03:57N 55°04' E 014°02'613.1
2018-Jun-16 03:30N 55°08' E 014°10'813.3
2018-Jun-16 02:53N 55°14' E 014°19'513.1
2018-Jun-16 02:30N 55°18' E 014°24'713.1
2018-Jun-16 01:58N 55°23' E 014°32'613.0
2018-Jun-16 01:30N 55°28' E 014°40'713.5
2018-Jun-16 01:00N 55°31' E 014°50'713.5
2018-Jun-16 00:30N 55°34' E 015°01'713.3
2018-Jun-16 00:00N 55°36' E 015°12'713.6
2018-Jun-15 23:29N 55°38' E 015°24'713.4
2018-Jun-15 22:59N 55°39' E 015°36'613.4
2018-Jun-15 22:30N 55°41' E 015°47'713.3
2018-Jun-15 21:59N 55°43' E 015°59'613.3
2018-Jun-15 21:30N 55°45' E 016°10'913.0
2018-Jun-15 20:50N 55°47' E 016°25'25912.3
2018-Jun-14 23:45N 59°06' E 021°33'312.6
2018-Jun-14 23:30N 59°08' E 021°36'612.2
2018-Jun-14 23:00N 59°12' E 021°44'612.7
2018-Jun-14 22:31N 59°16' E 021°54'1212.8
2018-Jun-14 21:36N 59°24' E 022°12'212.7
2018-Jun-14 21:26N 59°25' E 022°15'612.9
2018-Jun-14 20:57N 59°29' E 022°25'612.9
2018-Jun-14 20:30N 59°32' E 022°34'713.4
2018-Jun-14 20:00N 59°34' E 022°47'713.3
2018-Jun-14 19:31N 59°35' E 022°60'713.3
2018-Jun-14 19:01N 59°37' E 023°12'713.3
2018-Jun-14 18:31N 59°39' E 023°25'713.5
2018-Jun-14 18:01N 59°41' E 023°38'713.5
2018-Jun-14 17:31N 59°43' E 023°51'713.5
2018-Jun-14 17:00N 59°44' E 024°04'713.5
2018-Jun-14 16:31N 59°46' E 024°17'713.8
2018-Jun-14 16:00N 59°48' E 024°30'713.6
2018-Jun-14 15:30N 59°50' E 024°43'713.3
2018-Jun-14 15:01N 59°51' E 024°56'713.5
2018-Jun-14 14:31N 59°52' E 025°09'713.5
2018-Jun-14 14:01N 59°53' E 025°22'713.4
2018-Jun-14 13:31N 59°54' E 025°36'713.6
2018-Jun-14 13:00N 59°55' E 025°49'713.5
2018-Jun-14 12:30N 59°57' E 026°02'613.0
2018-Jun-14 12:00N 59°59' E 026°15'613.0
2018-Jun-14 11:30N 60°00' E 026°27'612.9
2018-Jun-14 11:01N 60°01' E 026°40'713.4
2018-Jun-14 10:30N 60°00' E 026°53'713.3
2018-Jun-14 09:58N 60°01' E 027°07'713.2
2018-Jun-14 09:29N 60°04' E 027°19'612.5
2018-Jun-14 08:59N 60°07' E 027°29'612.9
2018-Jun-14 08:30N 60°10' E 027°40'612.7
2018-Jun-14 08:00N 60°14' E 027°50'713.3
2018-Jun-14 07:30N 60°20' E 027°57'612.2
2018-Jun-14 07:00N 60°25' E 028°05'4 8.4
2018-Jun-14 06:30N 60°26' E 028°13'  
Track history (hours):
 
Tides and Currents Weather Stations Pressure Air Temp Water Temp Dewpoint Dewpoint Depression Visibility Wind Speed Wind Dir Waves Ship Positions

Cielo Di Hanoi

Last reported at 2018-Jun-23 20:50 UTC. Time now 2018-Jun-24 05:00 UTC.
Position N 55°37' E 015°23'.

Length 184 m; draft 7.4 m.

Type: Tanker. MMSI: 636017541.

Date/timePositionNaut miles runAvg speedWind from/ knotsBaromVisibWave heightAir tempDewpointWater temp
2018-Jun-23 20:50N 55°37' E 015°23'512.7
2018-Jun-23 20:27N 55°35' E 015°16'612.9
2018-Jun-23 19:59N 55°32' E 015°06'612.9
2018-Jun-23 19:30N 55°29' E 014°56'612.9
2018-Jun-23 19:00N 55°26' E 014°46'612.9
2018-Jun-23 18:30N 55°23' E 014°37'612.8
2018-Jun-23 18:00N 55°18' E 014°30'612.8
2018-Jun-23 17:30N 55°13' E 014°23'612.7
2018-Jun-23 17:00N 55°08' E 014°17'612.4
2018-Jun-23 16:30N 55°03' E 014°10'612.5
2018-Jun-23 16:00N 55°00' E 014°01'713.0
2018-Jun-23 15:30N 54°58' E 013°49'1812.6
2018-Jun-23 14:04N 54°52' E 013°20'4212.7
2018-Jun-23 10:44N 54°31' E 012°17'313.2
2018-Jun-23 10:30N 54°28' E 012°16'1812.7
2018-Jun-23 09:06N 54°25' E 011°45'113.3
2018-Jun-23 09:00N 54°25' E 011°44'814.2
2018-Jun-23 08:28N 54°29' E 011°32'714.0
2018-Jun-23 08:00N 54°32' E 011°22'815.4
2018-Jun-23 07:30N 54°35' E 011°10'815.2
2018-Jun-23 07:00N 54°34' E 010°57'714.0
2018-Jun-23 06:30N 54°34' E 010°45'713.3
2018-Jun-23 06:00N 54°33' E 010°34'813.1
2018-Jun-23 05:25N 54°30' E 010°21'42 5.9
2018-Jun-22 22:14N 54°08' E 009°20'2 7.7
2018-Jun-22 21:59N 54°06' E 009°20'4 8.2
2018-Jun-22 21:30N 54°02' E 009°18'3 6.4
2018-Jun-22 21:00N 53°59' E 009°17'4 7.8
2018-Jun-22 20:30N 53°56' E 009°12'3 6.1
2018-Jun-22 20:00N 53°54' E 009°09'0 0.0
2018-Jun-22 19:30N 53°54' E 009°09'1 2.4
2018-Jun-22 19:00N 53°53' E 009°07'5 9.5
2018-Jun-22 18:30N 53°51' E 008°60'714.1
2018-Jun-22 18:00N 53°50' E 008°48'714.5
2018-Jun-22 17:30N 53°56' E 008°40'25510.2
2018-Jun-21 16:28N 51°41' E 002°41'812.0
2018-Jun-21 15:50N 51°34' E 002°42'412.4
2018-Jun-21 15:28N 51°29' E 002°42'611.1
2018-Jun-21 14:58N 51°24' E 002°43'612.2
2018-Jun-21 14:30N 51°25' E 002°52'713.8
2018-Jun-21 14:00N 51°25' E 003°03'714.0
2018-Jun-21 13:30N 51°25' E 003°14'714.4
2018-Jun-21 13:00N 51°25' E 003°26'714.6
2018-Jun-21 12:31N 51°26' E 003°37'5 9.6
2018-Jun-21 12:00N 51°24' E 003°44'2 3.1
2018-Jun-21 11:31N 51°23' E 003°46'0 0.1
2018-Jun-21 10:56N 51°23' E 003°46'0 0.0
2018-Jun-21 10:29N 51°23' E 003°46'0 0.1
2018-Jun-21 09:59N 51°23' E 003°46'0 0.3
2018-Jun-21 09:29N 51°23' E 003°47'0 0.2
2018-Jun-21 08:59N 51°23' E 003°47'0 0.1
2018-Jun-21 08:29N 51°23' E 003°47'0 0.0
2018-Jun-21 07:59N 51°23' E 003°47'0 0.0
2018-Jun-21 07:29N 51°23' E 003°47'0 0.0
2018-Jun-21 06:59N 51°23' E 003°47'0 0.0
2018-Jun-21 06:29N 51°23' E 003°47'0 0.0
2018-Jun-21 05:59N 51°23' E 003°47'0 0.0
2018-Jun-21 05:29N 51°23' E 003°47'0 0.0
2018-Jun-21 04:59N 51°23' E 003°47'0 0.0
2018-Jun-21 04:29N 51°23' E 003°47'0 0.0
2018-Jun-21 03:59N 51°23' E 003°47'0 0.0
2018-Jun-21 03:26N 51°23' E 003°47'0 0.0
2018-Jun-21 02:59N 51°23' E 003°47'0 0.1
2018-Jun-21 02:29N 51°23' E 003°47'0 0.1
2018-Jun-21 01:53N 51°23' E 003°47'0 0.3
2018-Jun-21 01:29N 51°23' E 003°47'0 0.8
2018-Jun-21 01:00N 51°24' E 003°46'2 3.6
2018-Jun-21 00:30N 51°23' E 003°43'713.2
2018-Jun-21 00:00N 51°21' E 003°53'613.0
2018-Jun-20 23:30N 51°26' E 004°00'612.1
2018-Jun-20 23:00N 51°22' E 004°07'4 9.0
2018-Jun-20 22:30N 51°21' E 004°14'2 3.8
2018-Jun-20 22:01N 51°21' E 004°17'0 0.0
2018-Jun-20 21:30N 51°21' E 004°17'0 0.0
2018-Jun-20 21:00N 51°21' E 004°17'1 1.1
2018-Jun-20 20:30N 51°21' E 004°18'0 0.5
2018-Jun-20 20:01N 51°21' E 004°18'0 0.0
2018-Jun-20 19:30N 51°21' E 004°18'0 0.0
2018-Jun-20 19:00N 51°21' E 004°18'0 0.0
2018-Jun-20 18:30N 51°21' E 004°18'0 0.0
2018-Jun-20 18:00N 51°21' E 004°18'0 0.0
2018-Jun-20 17:30N 51°21' E 004°18'0 0.0
2018-Jun-20 17:00N 51°21' E 004°18'0 0.0
2018-Jun-20 16:30N 51°21' E 004°18'0 0.0
2018-Jun-20 16:01N 51°21' E 004°18'0 0.0
2018-Jun-20 15:30N 51°21' E 004°18'0 0.0
2018-Jun-20 15:00N 51°21' E 004°18'0 0.0
2018-Jun-20 14:31N 51°21' E 004°18'0 0.0
2018-Jun-20 14:01N 51°21' E 004°18'0 0.0
2018-Jun-20 13:30N 51°21' E 004°18'0 0.0
2018-Jun-20 13:00N 51°21' E 004°18'0 0.0
2018-Jun-20 12:31N 51°21' E 004°18'0 0.0
2018-Jun-20 12:01N 51°21' E 004°18'0 0.0
2018-Jun-20 11:31N 51°21' E 004°18'0 0.0
2018-Jun-20 11:00N 51°21' E 004°18'0 0.0
2018-Jun-20 10:30N 51°21' E 004°18'0 0.0
2018-Jun-20 10:00N 51°21' E 004°18'0 0.0
2018-Jun-20 09:30N 51°21' E 004°18'0 0.0
2018-Jun-20 09:00N 51°21' E 004°18'0 0.0
2018-Jun-20 08:30N 51°21' E 004°18'0 0.0
2018-Jun-20 08:00N 51°21' E 004°18'0 0.0
2018-Jun-20 07:30N 51°21' E 004°18'0 0.0
2018-Jun-20 07:00N 51°21' E 004°18'0 0.0
2018-Jun-20 06:30N 51°21' E 004°18'0 0.0
2018-Jun-20 06:00N 51°21' E 004°18'0 0.0
2018-Jun-20 05:30N 51°21' E 004°18'0 0.0
2018-Jun-20 05:01N 51°21' E 004°18'0 0.0
2018-Jun-20 04:31N 51°21' E 004°18'0 0.0
2018-Jun-20 04:01N 51°21' E 004°18'0 0.0
2018-Jun-20 03:31N 51°21' E 004°18'0 0.0
2018-Jun-20 03:00N 51°21' E 004°18'0 0.0
2018-Jun-20 02:31N 51°21' E 004°18'0 0.0
2018-Jun-20 02:00N 51°21' E 004°18'0 0.0
2018-Jun-20 01:30N 51°21' E 004°18'0 0.0
2018-Jun-20 01:01N 51°21' E 004°18'0 0.0
2018-Jun-20 00:30N 51°21' E 004°18'0 0.0
2018-Jun-20 00:01N 51°21' E 004°18'0 0.0
2018-Jun-19 23:31N 51°21' E 004°18'0 0.0
2018-Jun-19 23:00N 51°21' E 004°18'0 0.0
2018-Jun-19 22:30N 51°21' E 004°18'0 0.0
2018-Jun-19 22:00N 51°21' E 004°18'0 0.0
2018-Jun-19 21:30N 51°21' E 004°18'0 0.0
2018-Jun-19 21:00N 51°21' E 004°18'0 0.0
2018-Jun-19 20:30N 51°21' E 004°18'0 0.0
2018-Jun-19 20:00N 51°21' E 004°18'0 0.0
2018-Jun-19 19:30N 51°21' E 004°18'0 0.0
2018-Jun-19 19:00N 51°21' E 004°18'0 0.0
2018-Jun-19 18:30N 51°21' E 004°18'0 0.0
2018-Jun-19 18:01N 51°21' E 004°18'0 0.0
2018-Jun-19 17:30N 51°21' E 004°18'0 0.0
2018-Jun-19 17:00N 51°21' E 004°18'0 0.0
2018-Jun-19 11:08N 51°21' E 004°18'0 0.1
2018-Jun-19 11:00N 51°21' E 004°18'1 1.3
2018-Jun-19 10:31N 51°21' E 004°17'0 0.4
2018-Jun-19 10:00N 51°21' E 004°17'0 0.0
2018-Jun-19 09:30N 51°21' E 004°17'1 2.3
2018-Jun-19 09:00N 51°21' E 004°15'4 7.6
2018-Jun-19 08:30N 51°24' E 004°11'5 9.8
2018-Jun-19 08:00N 51°22' E 004°04'5 9.3
2018-Jun-19 07:30N 51°26' E 003°59'611.3
2018-Jun-19 07:00N 51°21' E 003°54'510.1
2018-Jun-19 06:30N 51°22' E 003°46'510.5
2018-Jun-19 06:00N 51°26' E 003°41'5 9.6
2018-Jun-19 05:30N 51°25' E 003°33'714.3
2018-Jun-19 05:00N 51°24' E 003°22'815.1
2018-Jun-19 04:30N 51°24' E 003°10'714.0
2018-Jun-19 04:00N 51°23' E 002°59'814.7
2018-Jun-19 03:29N 51°22' E 002°47'7 9.4
2018-Jun-19 02:46N 51°22' E 002°36'412.7
2018-Jun-19 02:27N 51°22' E 002°29'612.8
2018-Jun-19 01:57N 51°19' E 002°20'512.3
2018-Jun-19 01:30N 51°18' E 002°12'612.9
2018-Jun-19 01:00N 51°21' E 002°03'611.8
2018-Jun-19 00:30N 51°26' E 001°57'713.6
2018-Jun-19 00:00N 51°31' E 002°04'713.7
2018-Jun-18 23:30N 51°36' E 002°12'713.5
2018-Jun-18 22:59N 51°41' E 002°20'713.5
2018-Jun-18 22:30N 51°45' E 002°27'5911.6
2018-Jun-18 17:23N 52°41' E 003°01'611.2
2018-Jun-18 16:52N 52°45' E 003°07'1211.9
2018-Jun-18 15:50N 52°56' E 003°16'712.9
2018-Jun-18 15:19N 53°03' E 003°19'413.3
2018-Jun-18 14:59N 53°07' E 003°21'1613.6
2018-Jun-18 13:48N 53°22' E 003°29'513.6
2018-Jun-18 13:25N 53°27' E 003°32'35911.7
2018-Jun-17 06:39N 57°41' E 011°01'213.5
2018-Jun-17 06:29N 57°39' E 011°05'613.3
2018-Jun-17 06:00N 57°35' E 011°13'612.5
2018-Jun-17 05:30N 57°31' E 011°22'612.3
2018-Jun-17 05:00N 57°26' E 011°28'612.8
2018-Jun-17 04:30N 57°20' E 011°33'713.2
2018-Jun-17 04:00N 57°13' E 011°36'11711.5
2018-Jun-16 17:49N 55°18' E 011°03'412.9
2018-Jun-16 17:31N 55°15' E 011°06'510.5
2018-Jun-16 17:00N 55°09' E 011°03'510.7
2018-Jun-16 16:30N 55°04' E 011°02'611.7
2018-Jun-16 16:01N 54°59' E 010°58'611.1
2018-Jun-16 15:30N 54°55' E 010°52'510.5
2018-Jun-16 15:01N 54°50' E 010°50'611.7
2018-Jun-16 14:31N 54°44' E 010°47'510.8
2018-Jun-16 14:00N 54°39' E 010°51'612.5
2018-Jun-16 13:31N 54°36' E 011°00'612.2
2018-Jun-16 13:01N 54°36' E 011°11'612.8
2018-Jun-16 12:30N 54°33' E 011°21'612.7
2018-Jun-16 12:00N 54°30' E 011°30'612.6
2018-Jun-16 11:30N 54°28' E 011°41'612.4
2018-Jun-16 11:01N 54°26' E 011°51'612.7
2018-Jun-16 10:31N 54°26' E 012°02'612.1
2018-Jun-16 10:00N 54°28' E 012°12'712.3
2018-Jun-16 09:26N 54°35' E 012°15'5 9.9
2018-Jun-16 08:58N 54°38' E 012°21'611.1
2018-Jun-16 08:27N 54°41' E 012°29'511.5
2018-Jun-16 08:01N 54°44' E 012°37'612.2
2018-Jun-16 07:30N 54°47' E 012°45'713.2
2018-Jun-16 07:00N 54°50' E 012°56'713.4
2018-Jun-16 06:30N 54°52' E 013°07'713.6
2018-Jun-16 06:00N 54°54' E 013°18'713.5
2018-Jun-16 05:30N 54°56' E 013°29'713.2
2018-Jun-16 05:00N 54°58' E 013°40'713.1
2018-Jun-16 04:31N 55°01' E 013°51'713.3
2018-Jun-16 03:57N 55°04' E 014°02'613.1
2018-Jun-16 03:30N 55°08' E 014°10'813.3
2018-Jun-16 02:53N 55°14' E 014°19'513.1
2018-Jun-16 02:30N 55°18' E 014°24'713.1
2018-Jun-16 01:58N 55°23' E 014°32'613.0
2018-Jun-16 01:30N 55°28' E 014°40'713.5
2018-Jun-16 01:00N 55°31' E 014°50'713.5
2018-Jun-16 00:30N 55°34' E 015°01'713.3
2018-Jun-16 00:00N 55°36' E 015°12'713.6
2018-Jun-15 23:29N 55°38' E 015°24'713.4
2018-Jun-15 22:59N 55°39' E 015°36'613.4
2018-Jun-15 22:30N 55°41' E 015°47'713.3
2018-Jun-15 21:59N 55°43' E 015°59'613.3
2018-Jun-15 21:30N 55°45' E 016°10'913.0
2018-Jun-15 20:50N 55°47' E 016°25'25912.3
2018-Jun-14 23:45N 59°06' E 021°33'312.6
2018-Jun-14 23:30N 59°08' E 021°36'612.2
2018-Jun-14 23:00N 59°12' E 021°44'612.7
2018-Jun-14 22:31N 59°16' E 021°54'1212.8
2018-Jun-14 21:36N 59°24' E 022°12'212.7
2018-Jun-14 21:26N 59°25' E 022°15'612.9
2018-Jun-14 20:57N 59°29' E 022°25'612.9
2018-Jun-14 20:30N 59°32' E 022°34'713.4
2018-Jun-14 20:00N 59°34' E 022°47'713.3
2018-Jun-14 19:31N 59°35' E 022°60'713.3
2018-Jun-14 19:01N 59°37' E 023°12'713.3
2018-Jun-14 18:31N 59°39' E 023°25'713.5
2018-Jun-14 18:01N 59°41' E 023°38'713.5
2018-Jun-14 17:31N 59°43' E 023°51'713.5
2018-Jun-14 17:00N 59°44' E 024°04'713.5
2018-Jun-14 16:31N 59°46' E 024°17'713.8
2018-Jun-14 16:00N 59°48' E 024°30'713.6
2018-Jun-14 15:30N 59°50' E 024°43'713.3
2018-Jun-14 15:01N 59°51' E 024°56'713.5
2018-Jun-14 14:31N 59°52' E 025°09'713.5
2018-Jun-14 14:01N 59°53' E 025°22'713.4
2018-Jun-14 13:31N 59°54' E 025°36'713.6
2018-Jun-14 13:00N 59°55' E 025°49'713.5
2018-Jun-14 12:30N 59°57' E 026°02'613.0
2018-Jun-14 12:00N 59°59' E 026°15'613.0
2018-Jun-14 11:30N 60°00' E 026°27'612.9
2018-Jun-14 11:01N 60°01' E 026°40'713.4
2018-Jun-14 10:30N 60°00' E 026°53'713.3
2018-Jun-14 09:58N 60°01' E 027°07'713.2
2018-Jun-14 09:29N 60°04' E 027°19'612.5
2018-Jun-14 08:59N 60°07' E 027°29'612.9
2018-Jun-14 08:30N 60°10' E 027°40'612.7
2018-Jun-14 08:00N 60°14' E 027°50'713.3
2018-Jun-14 07:30N 60°20' E 027°57'612.2
2018-Jun-14 07:00N 60°25' E 028°05'4 8.4
2018-Jun-14 06:30N 60°26' E 028°13'  

Dump ship's entire track history